Time;durP1;ratioP1;P1;durP2;ratioP2;P2;SDS_P1;SDS_P2;PMS_P1;PMS_P2;Temp;Humidity;BMP_temperature;BMP_pressure;BME280_temperature;BME280_humidity;BME280_pressure;Samples;Min_cycle;Max_cycle;Signal;HPM_P1;HPM_P2
2023/09/01 00:04:49;;;;;;;;;;;13.20;99.90;;;;;;12294975;28;19990;-83
2023/09/01 00:10:51;;;;;;;;;;;13.20;99.90;;;;;;12313930;28;19946;-83
2023/09/01 00:16:53;;;;;;;;;;;13.00;99.90;;;;;;12342055;28;19927;-83
2023/09/01 00:22:55;;;;;;;;;;;13.10;99.90;;;;;;12340494;28;19954;-83
2023/09/01 00:28:56;;;;;;;;;;;12.90;99.90;;;;;;12342119;28;19977;-83
2023/09/01 00:35:00;;;;;;;;;;;13.00;99.90;;;;;;12318582;28;19958;-84
2023/09/01 00:41:02;;;;;;;;;;;12.90;99.90;;;;;;12302285;28;19934;-83
2023/09/01 00:47:05;;;;;;;;;;;12.90;99.90;;;;;;12280543;28;20703;-83
2023/09/01 00:53:08;;;;;;;;;;;13.00;99.90;;;;;;12284554;28;20022;-83
2023/09/01 00:59:10;;;;;;;;;;;13.00;99.90;;;;;;12282172;28;19958;-83
2023/09/01 01:05:15;;;;;;;;;;;13.00;99.90;;;;;;12288561;28;19930;-83
2023/09/01 01:11:35;;;;;;;;;;;12.90;99.90;;;;;;12276980;28;19970;-84
2023/09/01 01:17:42;;;;;;;;;;;12.80;99.90;;;;;;12285365;28;19973;-83
2023/09/01 01:23:44;;;;;;;;;;;13.00;99.90;;;;;;12287399;28;20383;-83
2023/09/01 01:29:47;;;;;;;;;;;12.90;99.90;;;;;;12284652;28;20033;-83
2023/09/01 01:35:49;;;;;;;;;;;12.80;99.90;;;;;;12282448;28;20014;-83
2023/09/01 01:41:53;;;;;;;;;;;12.80;99.90;;;;;;12287584;28;19989;-83
2023/09/01 01:47:58;;;;;;;;;;;13.00;99.90;;;;;;12267042;28;19942;-83
2023/09/01 01:54:00;;;;;;;;;;;13.00;99.90;;;;;;12285330;28;19930;-83
2023/09/01 02:00:02;;;;;;;;;;;13.00;99.90;;;;;;12282762;28;19931;-83
2023/09/01 02:06:05;;;;;;;;;;;12.70;99.90;;;;;;12275346;28;20311;-84
2023/09/01 02:12:07;;;;;;;;;;;12.50;99.90;;;;;;12295807;28;19937;-83
2023/09/01 02:18:09;;;;;;;;;;;12.40;99.90;;;;;;12279248;28;20005;-82
2023/09/01 02:24:11;;;;;;;;;;;12.70;99.90;;;;;;12298273;28;19938;-83
2023/09/01 02:30:13;;;;;;;;;;;12.60;99.90;;;;;;12283752;28;20033;-83
2023/09/01 02:36:24;;;;;;;;;;;12.70;99.90;;;;;;12274438;28;20493;-82
2023/09/01 02:42:26;;;;;;;;;;;12.80;99.90;;;;;;12277860;28;19937;-83
2023/09/01 02:48:29;;;;;;;;;;;12.70;99.90;;;;;;12266863;28;19976;-83
2023/09/01 02:54:31;;;;;;;;;;;12.60;99.90;;;;;;12273482;28;20395;-82
2023/09/01 03:00:32;;;;;;;;;;;12.60;99.90;;;;;;12283886;28;19953;-82
2023/09/01 03:06:34;;;;;;;;;;;12.60;99.90;;;;;;12278318;28;19962;-83
2023/09/01 03:12:39;;;;;;;;;;;12.60;99.90;;;;;;12278138;28;19937;-81
2023/09/01 03:18:41;;;;;;;;;;;12.70;99.90;;;;;;12291605;28;20470;-82
2023/09/01 03:24:43;;;;;;;;;;;12.70;99.90;;;;;;12338831;28;19937;-83
2023/09/01 03:30:45;;;;;;;;;;;12.70;99.90;;;;;;12322204;28;20002;-84
2023/09/01 03:36:47;;;;;;;;;;;12.80;99.90;;;;;;12328786;28;19930;-81
2023/09/01 03:42:49;;;;;;;;;;;12.90;99.90;;;;;;12324450;28;19939;-83
2023/09/01 03:48:51;;;;;;;;;;;12.60;99.90;;;;;;12319506;28;19952;-81
2023/09/01 03:54:53;;;;;;;;;;;12.70;99.90;;;;;;12319764;28;19934;-81
2023/09/01 04:00:55;;;;;;;;;;;12.60;99.90;;;;;;12315872;28;21557;-81
2023/09/01 04:06:56;;;;;;;;;;;12.70;99.90;;;;;;12351015;28;19938;-83
2023/09/01 04:12:58;;;;;;;;;;;12.40;99.90;;;;;;12326024;28;19931;-82
2023/09/01 04:19:01;;;;;;;;;;;12.40;99.90;;;;;;12298959;28;19930;-82
2023/09/01 04:25:04;;;;;;;;;;;12.40;99.90;;;;;;12283786;28;19941;-82
2023/09/01 04:31:25;;;;;;;;;;;12.70;99.90;;;;;;12282863;28;19930;-83
2023/09/01 04:37:27;;;;;;;;;;;12.80;99.90;;;;;;12345601;28;19997;-83
2023/09/01 04:43:29;;;;;;;;;;;12.40;99.90;;;;;;12330627;28;19934;-83
2023/09/01 04:49:31;;;;;;;;;;;12.40;99.90;;;;;;12331387;28;19937;-83
2023/09/01 04:55:33;;;;;;;;;;;12.30;99.90;;;;;;12347432;28;19998;-83
2023/09/01 05:01:35;;;;;;;;;;;12.40;99.90;;;;;;12309218;28;19926;-84
2023/09/01 05:07:37;;;;;;;;;;;12.10;99.90;;;;;;12300036;28;19922;-83
2023/09/01 05:13:39;;;;;;;;;;;12.20;99.90;;;;;;12353687;28;19926;-83
2023/09/01 05:19:40;;;;;;;;;;;12.40;99.90;;;;;;12288115;28;19943;-84
2023/09/01 05:25:42;;;;;;;;;;;12.50;99.90;;;;;;12350956;28;19941;-84
2023/09/01 05:31:44;;;;;;;;;;;12.60;99.90;;;;;;12342715;28;20013;-83
2023/09/01 05:37:46;;;;;;;;;;;12.60;99.90;;;;;;12348179;28;19927;-84
2023/09/01 05:43:48;;;;;;;;;;;12.50;99.90;;;;;;12324443;28;19931;-84
2023/09/01 05:49:49;;;;;;;;;;;12.60;99.90;;;;;;12315881;28;19952;-83
2023/09/01 05:55:51;;;;;;;;;;;12.70;99.90;;;;;;12317028;28;19937;-84
2023/09/01 06:01:53;;;;;;;;;;;12.70;99.90;;;;;;12325867;28;19930;-84
2023/09/01 06:07:55;;;;;;;;;;;12.70;99.90;;;;;;12329380;28;19931;-84
2023/09/01 06:13:57;;;;;;;;;;;12.80;99.90;;;;;;12335441;28;19922;-84
2023/09/01 06:19:59;;;;;;;;;;;12.90;99.90;;;;;;12334594;28;19930;-84
2023/09/01 06:26:01;;;;;;;;;;;12.90;99.90;;;;;;12341181;28;19923;-84
2023/09/01 06:32:03;;;;;;;;;;;12.80;99.90;;;;;;12334778;28;19941;-85
2023/09/01 06:38:06;;;;;;;;;;;13.10;99.90;;;;;;12342708;28;19994;-84
2023/09/01 06:44:08;;;;;;;;;;;13.20;99.90;;;;;;12331312;28;19926;-84
2023/09/01 06:50:09;;;;;;;;;;;13.40;99.90;;;;;;12327051;28;19931;-85
2023/09/01 06:56:11;;;;;;;;;;;13.50;99.90;;;;;;12321175;28;19931;-84
2023/09/01 07:02:13;;;;;;;;;;;13.80;99.90;;;;;;12325953;28;19942;-84
2023/09/01 07:08:15;;;;;;;;;;;14.10;99.90;;;;;;12325318;28;19922;-84
2023/09/01 07:14:17;;;;;;;;;;;14.40;99.90;;;;;;12340264;28;19985;-83
2023/09/01 07:20:19;;;;;;;;;;;14.60;99.90;;;;;;12334721;28;19922;-84
2023/09/01 07:26:21;;;;;;;;;;;14.90;99.90;;;;;;12344529;28;19990;-84
2023/09/01 07:32:23;;;;;;;;;;;15.00;99.90;;;;;;12338291;28;20006;-83
2023/09/01 07:38:25;;;;;;;;;;;15.10;99.90;;;;;;12342062;28;20057;-83
2023/09/01 07:44:26;;;;;;;;;;;15.50;99.90;;;;;;12337552;28;19931;-84
2023/09/01 07:50:30;;;;;;;;;;;15.60;99.90;;;;;;12356419;28;20142;-84
2023/09/01 07:56:32;;;;;;;;;;;15.60;99.90;;;;;;12322965;28;19934;-83
2023/09/01 08:02:35;;;;;;;;;;;15.90;99.90;;;;;;12306524;28;19941;-83
2023/09/01 08:08:37;;;;;;;;;;;15.60;99.90;;;;;;12304015;28;19930;-83
2023/09/01 08:14:39;;;;;;;;;;;15.70;99.90;;;;;;12300362;28;20021;-84
2023/09/01 08:20:42;;;;;;;;;;;15.70;99.90;;;;;;12298344;28;19930;-83
2023/09/01 08:26:44;;;;;;;;;;;16.30;99.90;;;;;;12311521;28;19930;-84
2023/09/01 08:32:45;;;;;;;;;;;16.60;99.90;;;;;;12288100;28;19931;-84
2023/09/01 08:38:47;;;;;;;;;;;16.60;99.90;;;;;;12295095;28;19931;-85
2023/09/01 08:44:49;;;;;;;;;;;16.00;99.90;;;;;;12292125;28;19972;-84
2023/09/01 08:50:52;;;;;;;;;;;16.20;99.90;;;;;;12289609;28;19993;-84
2023/09/01 08:56:54;;;;;;;;;;;16.90;99.90;;;;;;12287674;28;19942;-83
2023/09/01 09:02:56;;;;;;;;;;;16.70;99.90;;;;;;12287554;28;20013;-84
2023/09/01 09:09:12;;;;;;;;;;;16.90;99.90;;;;;;12285440;28;20371;-84
2023/09/01 09:15:17;;;;;;;;;;;17.20;99.90;;;;;;12300629;28;20021;-84
2023/09/01 09:21:29;;;;;;;;;;;17.50;99.90;;;;;;12281872;28;20529;-84
2023/09/01 09:27:32;;;;;;;;;;;17.50;99.90;;;;;;12283536;28;19939;-84
2023/09/01 09:33:34;;;;;;;;;;;17.30;99.90;;;;;;12283947;28;19941;-84
2023/09/01 09:39:41;;;;;;;;;;;17.20;99.90;;;;;;12279598;28;20737;-85
2023/09/01 09:45:45;;;;;;;;;;;17.30;99.90;;;;;;12282674;28;19926;-83
2023/09/01 09:51:50;;;;;;;;;;;17.60;99.90;;;;;;12277686;28;19934;-84
2023/09/01 09:57:54;;;;;;;;;;;17.80;99.90;;;;;;12279488;28;20362;-82
2023/09/01 10:03:58;;;;;;;;;;;17.90;99.90;;;;;;12277847;28;21882;-82
2023/09/01 10:10:00;;;;;;;;;;;17.80;99.90;;;;;;12279400;28;19930;-84
2023/09/01 10:16:03;;;;;;;;;;;17.80;99.90;;;;;;12295316;28;19930;-83
2023/09/01 10:22:06;;;;;;;;;;;17.60;99.90;;;;;;12290836;28;19935;-83
2023/09/01 10:28:10;;;;;;;;;;;17.40;99.90;;;;;;12276686;28;20020;-82
2023/09/01 10:34:13;;;;;;;;;;;17.50;99.90;;;;;;12289726;28;20056;-82
2023/09/01 10:40:34;;;;;;;;;;;17.50;99.90;;;;;;12290656;28;19930;-84
2023/09/01 10:46:36;;;;;;;;;;;17.30;99.90;;;;;;12271378;28;20387;-83
2023/09/01 10:52:38;;;;;;;;;;;17.30;99.90;;;;;;12278764;28;20051;-84
2023/09/01 10:58:43;;;;;;;;;;;17.20;99.90;;;;;;12276449;28;19927;-83
2023/09/01 11:04:46;;;;;;;;;;;17.20;99.90;;;;;;12271563;28;20009;-84
2023/09/01 11:10:48;;;;;;;;;;;17.00;99.90;;;;;;12283167;28;19959;-84
2023/09/01 11:16:49;;;;;;;;;;;16.90;99.90;;;;;;12278373;28;20364;-83
2023/09/01 11:22:51;;;;;;;;;;;16.90;99.90;;;;;;12320157;28;19937;-85
2023/09/01 11:28:54;;;;;;;;;;;16.80;99.90;;;;;;12296580;28;19937;-83
2023/09/01 11:34:57;;;;;;;;;;;16.70;99.90;;;;;;12268335;28;20063;-84
2023/09/01 11:41:00;;;;;;;;;;;16.80;99.90;;;;;;12270088;28;20025;-84
2023/09/01 11:47:10;;;;;;;;;;;16.80;99.90;;;;;;12267288;28;19937;-83
2023/09/01 11:53:21;;;;;;;;;;;16.70;99.90;;;;;;12272541;28;19977;-84
2023/09/01 11:59:23;;;;;;;;;;;16.80;99.90;;;;;;12273966;28;19957;-84
2023/09/01 12:05:31;;;;;;;;;;;16.90;99.90;;;;;;12277667;28;19985;-84
2023/09/01 12:11:33;;;;;;;;;;;16.90;99.90;;;;;;12277605;28;20061;-85
2023/09/01 12:17:35;;;;;;;;;;;16.80;99.90;;;;;;12294952;28;20280;-84
2023/09/01 12:23:39;;;;;;;;;;;16.80;99.90;;;;;;12293712;28;19934;-84
2023/09/01 12:29:41;;;;;;;;;;;16.90;99.90;;;;;;12276749;28;19977;-83
2023/09/01 12:35:43;;;;;;;;;;;17.10;99.90;;;;;;12281482;28;19930;-85
2023/09/01 12:41:45;;;;;;;;;;;17.20;99.90;;;;;;12275354;28;19982;-86
2023/09/01 12:47:47;;;;;;;;;;;17.20;99.90;;;;;;12283014;28;19932;-83
2023/09/01 12:53:50;;;;;;;;;;;17.20;99.90;;;;;;12260247;28;19930;-85
2023/09/01 12:59:52;;;;;;;;;;;17.30;99.90;;;;;;12263500;28;19953;-85
2023/09/01 13:05:54;;;;;;;;;;;17.30;99.90;;;;;;12259864;28;20000;-83
2023/09/01 13:11:56;;;;;;;;;;;17.30;99.90;;;;;;12283792;28;19926;-85
2023/09/01 13:17:58;;;;;;;;;;;17.20;99.90;;;;;;12269286;28;20429;-85
2023/09/01 13:24:00;;;;;;;;;;;17.10;99.90;;;;;;12268266;28;19930;-85
2023/09/01 13:30:02;;;;;;;;;;;17.10;99.90;;;;;;12271809;28;20488;-84
2023/09/01 13:36:04;;;;;;;;;;;17.10;99.90;;;;;;12287395;28;20462;-85
2023/09/01 13:42:06;;;;;;;;;;;17.20;99.90;;;;;;12271801;28;19934;-85
2023/09/01 13:48:08;;;;;;;;;;;17.00;99.90;;;;;;12256331;28;19931;-84
2023/09/01 13:54:09;;;;;;;;;;;17.00;99.90;;;;;;12273811;28;19965;-84
2023/09/01 14:00:12;;;;;;;;;;;16.90;99.90;;;;;;12285789;28;19974;-83
2023/09/01 14:06:14;;;;;;;;;;;16.90;99.90;;;;;;12272370;28;19934;-84
2023/09/01 14:12:16;;;;;;;;;;;16.80;99.90;;;;;;12278660;28;19938;-84
2023/09/01 14:18:23;;;;;;;;;;;16.80;99.90;;;;;;12269608;28;19931;-85
2023/09/01 14:24:26;;;;;;;;;;;16.60;99.90;;;;;;12273247;28;19931;-84
2023/09/01 14:30:28;;;;;;;;;;;16.50;99.90;;;;;;12274170;28;19930;-84
2023/09/01 14:36:29;;;;;;;;;;;16.40;99.90;;;;;;12293426;28;19977;-84
2023/09/01 14:42:31;;;;;;;;;;;16.40;99.90;;;;;;12275922;28;20346;-84
2023/09/01 14:48:33;;;;;;;;;;;16.30;99.90;;;;;;12275526;28;19938;-84
2023/09/01 14:54:35;;;;;;;;;;;16.30;99.90;;;;;;12253125;28;19941;-85
2023/09/01 15:00:37;;;;;;;;;;;16.30;99.90;;;;;;12262152;28;19965;-85
2023/09/01 15:06:38;;;;;;;;;;;16.40;99.90;;;;;;12281674;28;19930;-85
2023/09/01 15:12:44;;;;;;;;;;;16.50;99.90;;;;;;12260706;28;19934;-85
2023/09/01 15:18:45;;;;;;;;;;;16.50;99.90;;;;;;12262665;28;20369;-85
2023/09/01 15:24:47;;;;;;;;;;;16.60;99.90;;;;;;12256973;28;19931;-85
2023/09/01 15:30:49;;;;;;;;;;;16.60;99.90;;;;;;12271623;28;20069;-85
2023/09/01 15:36:51;;;;;;;;;;;16.50;99.90;;;;;;12270818;28;20028;-85
2023/09/01 15:42:54;;;;;;;;;;;16.50;99.90;;;;;;12275782;28;19984;-85
2023/09/01 15:48:56;;;;;;;;;;;16.50;99.90;;;;;;12277729;28;19930;-85
2023/09/01 15:54:58;;;;;;;;;;;16.50;99.90;;;;;;12276143;28;20349;-85
2023/09/01 16:01:00;;;;;;;;;;;16.50;99.90;;;;;;12287360;28;19938;-85
2023/09/01 16:07:22;;;;;;;;;;;16.60;99.90;;;;;;12314869;28;19923;-83
2023/09/01 16:13:24;;;;;;;;;;;16.50;99.90;;;;;;12341488;28;19934;-84
2023/09/01 16:19:26;;;;;;;;;;;16.50;99.90;;;;;;12310441;28;19942;-84
2023/09/01 16:25:28;;;;;;;;;;;16.50;99.90;;;;;;12287413;28;20402;-84
2023/09/01 16:31:30;;;;;;;;;;;16.50;99.90;;;;;;12293938;28;19974;-84
2023/09/01 16:37:32;;;;;;;;;;;16.50;99.90;;;;;;12294697;28;20025;-83
2023/09/01 16:43:34;;;;;;;;;;;16.50;99.90;;;;;;12276280;28;20308;-84
2023/09/01 16:49:36;;;;;;;;;;;16.50;99.90;;;;;;12299898;28;19934;-83
2023/09/01 16:55:38;;;;;;;;;;;16.50;99.90;;;;;;12278110;28;19938;-83
2023/09/01 17:01:39;;;;;;;;;;;16.60;99.90;;;;;;12269807;28;20613;-84
2023/09/01 17:07:41;;;;;;;;;;;16.50;99.90;;;;;;12275893;28;20013;-84
2023/09/01 17:13:43;;;;;;;;;;;16.40;99.90;;;;;;12273038;28;19973;-83
2023/09/01 17:19:45;;;;;;;;;;;16.40;99.90;;;;;;12289326;28;20021;-84
2023/09/01 17:25:48;;;;;;;;;;;16.30;99.90;;;;;;12273741;28;19972;-84
2023/09/01 17:31:50;;;;;;;;;;;16.30;99.90;;;;;;12274807;28;19930;-84
2023/09/01 17:37:54;;;;;;;;;;;16.30;99.90;;;;;;12271080;28;19957;-84
2023/09/01 17:43:55;;;;;;;;;;;16.30;99.90;;;;;;12269784;28;19990;-84
2023/09/01 17:49:57;;;;;;;;;;;16.30;99.90;;;;;;12264207;28;19986;-84
2023/09/01 17:55:59;;;;;;;;;;;16.30;99.90;;;;;;12261381;28;19966;-84
2023/09/01 18:02:02;;;;;;;;;;;16.30;99.90;;;;;;12275440;28;19930;-84
2023/09/01 18:08:04;;;;;;;;;;;16.20;99.90;;;;;;12272914;28;19945;-84
2023/09/01 18:14:07;;;;;;;;;;;16.20;99.90;;;;;;12272511;28;20511;-84
2023/09/01 18:20:13;;;;;;;;;;;16.20;99.90;;;;;;12270686;28;20263;-84
2023/09/01 18:26:15;;;;;;;;;;;16.20;99.90;;;;;;12271616;28;20033;-83
2023/09/01 18:32:17;;;;;;;;;;;16.20;99.90;;;;;;12285906;28;19935;-83
2023/09/01 18:38:21;;;;;;;;;;;16.10;99.90;;;;;;12283404;28;19938;-82
2023/09/01 18:44:22;;;;;;;;;;;16.10;99.90;;;;;;12271304;28;19934;-83
2023/09/01 18:50:24;;;;;;;;;;;16.10;99.90;;;;;;12268107;28;19941;-83
2023/09/01 18:56:26;;;;;;;;;;;16.10;99.90;;;;;;12266637;28;20430;-83
2023/09/01 19:02:35;;;;;;;;;;;16.10;99.90;;;;;;12263655;28;20318;-82
2023/09/01 19:08:38;;;;;;;;;;;16.10;99.90;;;;;;12264698;28;19934;-82
2023/09/01 19:14:40;;;;;;;;;;;16.00;99.90;;;;;;12286045;28;19953;-83
2023/09/01 19:20:42;;;;;;;;;;;16.00;99.90;;;;;;12269824;28;20419;-83
2023/09/01 19:26:44;;;;;;;;;;;16.00;99.90;;;;;;12270119;28;19930;-82
2023/09/01 19:32:46;;;;;;;;;;;16.10;99.90;;;;;;12271572;28;19930;-83
2023/09/01 19:38:50;;;;;;;;;;;16.00;99.90;;;;;;12268958;28;19931;-84
2023/09/01 19:44:52;;;;;;;;;;;16.00;99.90;;;;;;12269481;28;20045;-84
2023/09/01 19:50:54;;;;;;;;;;;16.00;99.90;;;;;;12273796;28;19935;-84
2023/09/01 19:56:56;;;;;;;;;;;16.00;99.90;;;;;;12264191;28;19940;-84
2023/09/01 20:02:59;;;;;;;;;;;16.00;99.90;;;;;;12269852;28;19938;-84
2023/09/01 20:09:14;;;;;;;;;;;15.90;99.90;;;;;;12285390;28;20270;-84
2023/09/01 20:15:21;;;;;;;;;;;15.90;99.90;;;;;;12286643;28;19937;-84
2023/09/01 20:21:23;;;;;;;;;;;15.80;99.90;;;;;;12282437;28;19931;-84
2023/09/01 20:27:25;;;;;;;;;;;15.90;99.90;;;;;;12278741;28;19927;-84
2023/09/01 20:33:28;;;;;;;;;;;15.80;99.90;;;;;;12283791;28;21185;-84
2023/09/01 20:39:30;;;;;;;;;;;15.80;99.90;;;;;;12298354;28;19930;-82
2023/09/01 20:45:31;;;;;;;;;;;15.80;99.90;;;;;;12319081;28;19937;-84
2023/09/01 20:51:33;;;;;;;;;;;15.80;99.90;;;;;;12286146;28;19926;-84
2023/09/01 20:57:41;;;;;;;;;;;15.90;99.90;;;;;;12271067;28;19942;-84
2023/09/01 21:03:43;;;;;;;;;;;15.70;99.90;;;;;;12290534;28;20035;-84
2023/09/01 21:09:44;;;;;;;;;;;15.80;99.90;;;;;;12276433;28;20010;-84
2023/09/01 21:15:47;;;;;;;;;;;15.80;99.90;;;;;;12267293;28;19950;-84
2023/09/01 21:21:50;;;;;;;;;;;15.70;99.90;;;;;;12275629;28;19935;-83
2023/09/01 21:27:51;;;;;;;;;;;15.70;99.90;;;;;;12272915;28;19939;-84
2023/09/01 21:33:53;;;;;;;;;;;15.70;99.90;;;;;;12272868;28;20439;-84
2023/09/01 21:39:55;;;;;;;;;;;15.50;99.90;;;;;;12273046;28;19938;-84
2023/09/01 21:45:57;;;;;;;;;;;15.60;99.90;;;;;;12275228;28;19949;-83
2023/09/01 21:51:58;;;;;;;;;;;15.60;99.90;;;;;;12269703;28;19930;-83
2023/09/01 21:58:00;;;;;;;;;;;15.50;99.90;;;;;;12271438;28;20414;-84
2023/09/01 22:04:02;;;;;;;;;;;15.30;99.90;;;;;;12276544;28;19930;-84
2023/09/01 22:10:05;;;;;;;;;;;15.20;99.90;;;;;;12289359;28;19930;-84
2023/09/01 22:16:09;;;;;;;;;;;15.30;99.90;;;;;;12270153;28;19938;-84
2023/09/01 22:22:11;;;;;;;;;;;15.30;99.90;;;;;;12273080;28;19997;-84
2023/09/01 22:28:13;;;;;;;;;;;15.30;99.90;;;;;;12266205;28;19934;-84
2023/09/01 22:34:15;;;;;;;;;;;15.30;99.90;;;;;;12274318;28;19966;-84
2023/09/01 22:40:17;;;;;;;;;;;15.30;99.90;;;;;;12267665;28;19935;-84
2023/09/01 22:46:19;;;;;;;;;;;15.20;99.90;;;;;;12272791;28;19942;-84
2023/09/01 22:52:21;;;;;;;;;;;15.20;99.90;;;;;;12274997;28;19931;-84
2023/09/01 22:58:23;;;;;;;;;;;15.20;99.90;;;;;;12267339;28;20035;-84
2023/09/01 23:04:25;;;;;;;;;;;15.20;99.90;;;;;;12267041;28;20019;-84
2023/09/01 23:10:27;;;;;;;;;;;15.10;99.90;;;;;;12275835;28;19989;-84
2023/09/01 23:16:29;;;;;;;;;;;15.20;99.90;;;;;;12270876;28;19970;-84
2023/09/01 23:22:31;;;;;;;;;;;15.10;99.90;;;;;;12269775;28;19945;-84
2023/09/01 23:28:33;;;;;;;;;;;15.10;99.90;;;;;;12256607;28;20303;-84
2023/09/01 23:34:35;;;;;;;;;;;15.00;99.90;;;;;;12270241;28;20088;-84
2023/09/01 23:40:37;;;;;;;;;;;14.90;99.90;;;;;;12259943;28;19934;-84
2023/09/01 23:46:39;;;;;;;;;;;14.80;99.90;;;;;;12272253;28;20087;-84
2023/09/01 23:52:41;;;;;;;;;;;14.80;99.90;;;;;;12273222;28;20034;-83
2023/09/01 23:58:42;;;;;;;;;;;14.60;99.90;;;;;;12279572;28;19934;-84
